Detall de PIREP

Printer-friendly versionPDF version

[2014/05/02 10:22:00]
Flight IATA:CT3121
Pilot Number:012
Company ICAO:CAT
Aircraft Type:DC3/A
PAX:17
Aircraft Registration:PAX
Departing Airport: LEVC
Destination Airport: LEPA
Alternate Airport:LEIB
Online: VATSIM
Route:ORVUS M871 GODOX
Flight Level:F100
No Slew and time accel
No pause
Crash detect
Detect pilot in Cockpit between each 30 and 45 minutes
10:22 Zero fuel Weight: 19573 Lbs, Fuel Weight: 2374 Lbs
10:22 VATSIM:LEVC 021000Z 36012KT 320V030 CAVOK 23/03 Q1015 NOSIG
10:22 VATSIM:LEPA 021000Z 34007KT 310V010 9999 FEW025 SCT042 18/08 Q1014 NOSIG
10:23 Parking Brakes off
10:28 Take-off
10:28 Take off Weight: 21923 Lbs
10:28 Wind: 002º @ 012 Knots Heading: 298º
10:28 POS N39º 29´ 22´´ W000º 28´ 58´´
10:28 Gear Up: 108 Knots
10:39 TOC
10:39 Fuel Weight: 2199 Lb
10:43 Wind:344º@021 Knots Heading: 134º Ground Speed: 180 Knots Altitude 10019 ft
10:55 TOD
10:55 Fuel Weight: 2031 Lb
10:58 Wind:344º@021 Knots Heading: 079º Ground Speed: 170 Knots Altitude 9783 ft
11:03 TOC
11:03 Fuel Weight: 1937 Lb
11:13 Wind:324º@021 Knots Heading: 077º Ground Speed: 174 Knots Altitude 10065 ft
11:18 TOD
11:18 Fuel Weight: 1775 Lb
11:28 Wind:357º@003 Knots Heading: 145º Ground Speed: 133 Knots Altitude 3343 ft
11:30 Flaps:1 at 95 Knots
11:31 Flaps:2 at 108 Knots
11:31 Gear Down: 102 Knots
11:33 Flaps:3 at 95 Knots
11:36 TouchDown:Rate -182 ft/min Speed: 71 Knots
11:36 Flaps:2 at 42 Knots
11:36 Flaps:0 at 41 Knots
11:36 VATSIM:LEPA 021100Z 05010KT 020V080 9999 FEW025 SCT040 20/09 Q1014 NOSIG
11:36 Land
11:36 Wind:019º@001 Knots
11:36 Heading: 055º
11:36 Flight Duration: 01:08
11:36 Landing Weight: 21237 Lbs
11:36 POS N39º 33´ 06´´ E002º 43´ 14´´
11:39 Parking brakes on
11:39 Block to Block Duration: 01:16
11:39 Final Fuel: Fuel Weight: 2031 Lb
10:58 Wind:344º@021 Knots Heading: 079º Ground Speed: 170 Knots Altitude 9783 ft
11:03 TOC
11:03 Fuel Weight: 1937 Lb
11:13 Wind:324º@021 Knots Heading: 077º Ground Speed: 174 Knots Altitude 10065 ft
11:18 TOD
11:18 Fuel Weight: 1775 Lb
11:28 Wind:357º@003 Knots Heading: 145º Ground Speed: 133 Knots Altitude 3343 ft
11:30 Flaps:1 at 95 Knots
11:31 Flaps:2 at 108 Knots
11:31 Gear Down: 102 Knots
11:33 Flaps:3 at 95 Knots
11:36 TouchDown:Rate -182 ft/min Speed: 71 Knots
11:36 Flaps:2 at 42 Knots
11:36 Flaps:0 at 41 Knots
11:36 VATSIM:LEPA 021100Z 05010KT 020V080 9999 FEW025 SCT040 20/09 Q1014 NOSIG
11:36 Land
11:36 Wind:019º@001 Knots
11:36 Heading: 055º
11:36 Flight Duration: 01:08
11:36 Landing Weight: 21237 Lbs
11:36 POS N39º 33´ 06´´ E002º 43´ 14´´
11:39 Parking brakes on
11:39 Block to Block Duration: 01:16
11:39 Final Fuel:1655 Lbls
11:39 Spent Fuel: 718 Lbls
11:39 Flight Length: 174 NM
11:39 TOD Land Length: 43 NM

Exportar CSV

Powered by Drupal - Modified by Danger4k